createdAt,value
2022-09-16T00:01:13.903Z,100.00
2022-09-16T00:06:35.742Z,100.00
2022-09-16T00:11:57.532Z,100.00
2022-09-16T00:17:19.731Z,100.00
2022-09-16T00:22:41.505Z,100.00
2022-09-16T00:28:03.351Z,100.00
2022-09-16T00:33:25.256Z,100.00
2022-09-16T00:38:51.118Z,100.00
2022-09-16T00:44:50.388Z,100.00
2022-09-16T00:50:32.043Z,100.00
2022-09-16T00:55:58.944Z,99.86
2022-09-16T01:01:21.839Z,99.31
2022-09-16T01:06:43.967Z,98.45
2022-09-16T01:12:05.951Z,96.82
2022-09-16T01:17:43.589Z,95.80
2022-09-16T01:23:17.406Z,95.58
2022-09-16T01:29:32.393Z,94.88
2022-09-16T01:35:02.231Z,95.78
2022-09-16T01:40:45.888Z,94.88
2022-09-16T01:46:16.582Z,95.07
2022-09-16T01:51:50.166Z,95.87
2022-09-16T01:57:19.199Z,94.69
2022-09-16T02:02:58.654Z,94.03
2022-09-16T02:08:32.665Z,94.28
2022-09-16T02:14:03.628Z,94.31
2022-09-16T02:19:39.540Z,93.74
2022-09-16T02:25:03.520Z,93.87
2022-09-16T02:30:25.292Z,94.18
2022-09-16T02:35:52.353Z,93.40
2022-09-16T02:41:14.377Z,93.76
2022-09-16T02:47:06.811Z,93.61
2022-09-16T02:52:37.595Z,94.29
2022-09-16T02:57:59.787Z,93.91
2022-09-16T03:03:22.397Z,93.72
2022-09-16T03:08:45.192Z,95.03
2022-09-16T03:14:50.225Z,96.16
2022-09-16T03:20:20.790Z,96.02
2022-09-16T03:26:04.040Z,96.33
2022-09-16T03:31:28.177Z,96.92
2022-09-16T03:36:56.721Z,97.36
2022-09-16T03:42:19.939Z,97.48
2022-09-16T03:47:42.988Z,99.06
2022-09-16T03:53:04.974Z,100.00
2022-09-16T03:58:26.962Z,100.00
2022-09-16T04:03:48.730Z,100.00
2022-09-16T04:09:11.849Z,100.00
2022-09-16T04:14:34.415Z,100.00
2022-09-16T04:19:56.195Z,100.00
2022-09-16T04:25:17.990Z,99.96
2022-09-16T04:30:39.852Z,100.00
2022-09-16T04:36:06.550Z,99.02
2022-09-16T04:41:28.222Z,96.07
2022-09-16T04:46:49.973Z,97.38
2022-09-16T04:52:11.795Z,95.72
2022-09-16T04:57:33.563Z,93.99
2022-09-16T05:02:55.375Z,91.26
2022-09-16T05:08:17.215Z,94.17
2022-09-16T05:13:40.009Z,96.67
2022-09-16T05:19:02.502Z,91.30
2022-09-16T05:24:24.263Z,89.42
2022-09-16T05:29:46.032Z,86.40
2022-09-16T05:35:08.171Z,82.21
2022-09-16T05:40:30.005Z,80.61
2022-09-16T05:45:53.061Z,83.02
2022-09-16T05:51:20.689Z,83.11
2022-09-16T05:56:42.541Z,82.87
2022-09-16T06:02:04.357Z,78.45
2022-09-16T06:07:26.215Z,79.04
2022-09-16T06:12:48.042Z,77.54
2022-09-16T06:18:09.797Z,77.83
2022-09-16T06:23:31.854Z,64.34
2022-09-16T06:28:54.407Z,68.70
2022-09-16T06:34:17.661Z,63.02
2022-09-16T06:39:39.483Z,68.57
2022-09-16T06:45:01.222Z,62.91
2022-09-16T06:50:23.007Z,66.87
2022-09-16T06:55:44.836Z,58.48
2022-09-16T07:01:11.947Z,53.21
2022-09-16T07:12:19.468Z,45.04
2022-09-16T07:17:41.469Z,39.76
2022-09-16T07:23:03.303Z,37.29
2022-09-16T07:28:25.157Z,37.01
2022-09-16T07:33:49.538Z,35.29
2022-09-16T07:44:31.457Z,32.23
2022-09-16T07:49:53.244Z,34.27
2022-09-16T07:55:16.182Z,30.83
2022-09-16T08:00:37.942Z,32.91
2022-09-16T08:06:05.078Z,32.26
2022-09-16T08:11:28.103Z,31.17
2022-09-16T08:16:49.964Z,32.52
2022-09-16T08:22:11.788Z,30.30
2022-09-16T08:27:36.682Z,30.58
2022-09-16T08:32:59.370Z,31.10
2022-09-16T08:38:21.141Z,28.77
2022-09-16T08:43:55.070Z,30.80
2022-09-16T08:49:26.296Z,28.02
2022-09-16T08:54:52.418Z,27.82
2022-09-16T09:00:18.055Z,32.26
2022-09-16T09:05:57.566Z,33.92
2022-09-16T09:11:35.342Z,31.96
2022-09-16T09:17:22.241Z,33.48
2022-09-16T09:22:49.868Z,36.57
2022-09-16T09:28:27.497Z,37.34
2022-09-16T09:34:00.451Z,37.19
2022-09-16T09:39:32.284Z,36.87
2022-09-16T09:45:04.615Z,34.90
2022-09-16T09:50:36.725Z,37.73
2022-09-16T09:56:15.189Z,40.18
2022-09-16T10:01:37.043Z,35.42
2022-09-16T10:06:59.368Z,39.26
2022-09-16T10:12:35.796Z,40.04
2022-09-16T10:18:00.284Z,41.06
2022-09-16T10:23:29.762Z,42.84
2022-09-16T10:29:11.668Z,43.49
2022-09-16T10:34:37.598Z,42.42
2022-09-16T10:39:59.669Z,44.28
2022-09-16T10:45:31.442Z,44.17
2022-09-16T10:50:55.791Z,43.63
2022-09-16T10:56:20.801Z,44.42
2022-09-16T11:01:47.444Z,44.39
2022-09-16T11:07:38.508Z,43.60
2022-09-16T11:13:25.093Z,42.40
2022-09-16T11:19:05.762Z,40.55
2022-09-16T11:24:42.893Z,40.75
2022-09-16T11:30:22.365Z,40.26
2022-09-16T11:36:05.259Z,39.87
2022-09-16T11:41:45.004Z,39.71
2022-09-16T11:47:22.162Z,40.06
2022-09-16T11:53:12.501Z,39.95
2022-09-16T11:58:58.694Z,39.16
2022-09-16T12:04:34.982Z,38.38
2022-09-16T12:10:22.594Z,38.82
2022-09-16T12:15:50.626Z,39.48
2022-09-16T12:21:24.115Z,39.11
2022-09-16T12:27:04.019Z,38.79
2022-09-16T12:32:50.437Z,38.53
2022-09-16T12:38:18.324Z,39.16
2022-09-16T12:44:30.655Z,39.82
2022-09-16T12:50:12.594Z,39.95
2022-09-16T12:55:45.991Z,40.74
2022-09-16T13:01:21.841Z,40.88
2022-09-16T13:06:55.681Z,40.34
2022-09-16T13:12:39.271Z,40.69
2022-09-16T13:18:14.964Z,41.57
2022-09-16T13:23:45.486Z,41.15
2022-09-16T13:29:27.934Z,41.30
2022-09-16T13:35:01.301Z,41.61
2022-09-16T13:40:30.868Z,41.54
2022-09-16T13:46:11.314Z,42.36
2022-09-16T13:51:38.656Z,41.81
2022-09-16T13:57:24.696Z,41.16
2022-09-16T14:03:00.969Z,41.40
2022-09-16T14:08:51.619Z,41.35
2022-09-16T14:14:45.676Z,42.07
2022-09-16T14:20:01.108Z,41.78
2022-09-16T14:25:35.014Z,41.35
2022-09-16T14:31:00.108Z,41.34
2022-09-16T14:36:37.469Z,41.63
2022-09-16T14:42:06.877Z,42.10
2022-09-16T14:47:50.728Z,43.62
2022-09-16T14:53:40.819Z,43.48
2022-09-16T14:59:08.639Z,43.59
2022-09-16T15:04:35.477Z,44.09
2022-09-16T15:10:05.328Z,45.10
2022-09-16T15:15:30.596Z,46.04
2022-09-16T15:21:18.539Z,46.24
2022-09-16T15:26:43.217Z,46.64
2022-09-16T15:32:21.788Z,46.22
2022-09-16T15:37:43.650Z,46.64
2022-09-16T15:43:29.267Z,47.31
2022-09-16T15:48:56.937Z,47.22
2022-09-16T15:54:47.880Z,47.73
2022-09-16T16:00:14.856Z,48.37
2022-09-16T16:05:36.838Z,48.15
2022-09-16T16:11:09.875Z,48.34
2022-09-16T16:16:31.684Z,48.11
2022-09-16T16:21:53.488Z,48.72
2022-09-16T16:27:15.308Z,49.17
2022-09-16T16:32:37.160Z,50.46
2022-09-16T16:37:58.963Z,50.37
2022-09-16T16:43:20.728Z,51.08
2022-09-16T16:48:42.527Z,51.71
2022-09-16T16:54:04.446Z,52.32
2022-09-16T16:59:26.914Z,52.90
2022-09-16T17:04:48.785Z,53.77
2022-09-16T17:10:10.579Z,54.31
2022-09-16T17:15:32.414Z,55.00
2022-09-16T17:20:54.278Z,55.76
2022-09-16T17:26:16.898Z,57.08
2022-09-16T17:31:38.877Z,58.01
2022-09-16T17:37:00.674Z,58.79
2022-09-16T17:42:22.512Z,59.85
2022-09-16T17:47:44.401Z,60.73
2022-09-16T17:53:06.423Z,61.93
2022-09-16T17:58:28.315Z,62.85
2022-09-16T18:03:52.388Z,63.59
2022-09-16T18:09:14.821Z,64.85
2022-09-16T18:14:37.156Z,65.77
2022-09-16T18:20:01.597Z,66.63
2022-09-16T18:25:25.505Z,70.73
2022-09-16T18:30:47.275Z,67.74
2022-09-16T18:36:11.965Z,68.16
2022-09-16T18:41:39.107Z,69.27
2022-09-16T18:47:00.946Z,69.12
2022-09-16T18:52:22.801Z,69.66
2022-09-16T18:57:44.901Z,69.93
2022-09-16T19:03:06.819Z,70.38
2022-09-16T19:08:28.722Z,71.18
2022-09-16T19:13:50.865Z,70.72
2022-09-16T19:19:14.666Z,71.35
2022-09-16T19:24:36.539Z,71.76
2022-09-16T19:29:58.327Z,71.89
2022-09-16T19:35:20.366Z,72.26
2022-09-16T19:40:42.211Z,72.60
2022-09-16T19:46:07.997Z,73.10
2022-09-16T19:51:29.886Z,74.06
2022-09-16T19:56:52.080Z,74.71
2022-09-16T20:02:13.878Z,75.17
2022-09-16T20:07:35.753Z,74.82
2022-09-16T20:12:59.482Z,75.18
2022-09-16T20:18:21.388Z,76.05
2022-09-16T20:23:43.782Z,76.33
2022-09-16T20:29:05.582Z,76.88
2022-09-16T20:34:27.334Z,76.99
2022-09-16T20:39:49.141Z,78.23
2022-09-16T20:45:11.084Z,78.98
2022-09-16T20:50:36.732Z,79.03
2022-09-16T20:56:03.639Z,79.84
2022-09-16T21:01:28.355Z,79.81
2022-09-16T21:06:50.238Z,80.27
2022-09-16T21:12:12.039Z,81.08
2022-09-16T21:17:33.843Z,80.95
2022-09-16T21:22:55.710Z,81.44
2022-09-16T21:28:17.560Z,81.57
2022-09-16T21:33:41.146Z,81.77
2022-09-16T21:39:03.294Z,82.59
2022-09-16T21:44:25.121Z,83.02
2022-09-16T21:49:46.965Z,83.38
2022-09-16T21:55:09.114Z,84.11
2022-09-16T22:00:30.934Z,85.91
2022-09-16T22:05:52.695Z,85.62
2022-09-16T22:11:17.665Z,86.58
2022-09-16T22:16:40.366Z,86.41
2022-09-16T22:22:02.305Z,86.36
2022-09-16T22:27:24.117Z,88.17
2022-09-16T22:32:45.920Z,87.87
2022-09-16T22:38:07.697Z,88.36
2022-09-16T22:43:33.825Z,87.79
2022-09-16T22:48:57.186Z,88.30
2022-09-16T22:54:19.097Z,88.05
2022-09-16T22:59:40.887Z,87.89
2022-09-16T23:05:02.778Z,88.41
2022-09-16T23:10:24.539Z,89.20
2022-09-16T23:15:46.342Z,88.49
2022-09-16T23:21:12.085Z,88.81
2022-09-16T23:26:38.444Z,89.84
2022-09-16T23:32:00.231Z,90.20
2022-09-16T23:37:22.027Z,90.38
2022-09-16T23:42:43.808Z,91.31
2022-09-16T23:48:05.650Z,90.87
2022-09-16T23:53:28.045Z,90.80
2022-09-16T23:58:50.523Z,91.86
